Time;durP1;ratioP1;P1;durP2;ratioP2;P2;SDS_P1;SDS_P2;PMS_P1;PMS_P2;Temp;Humidity;BMP_temperature;BMP_pressure;BME280_temperature;BME280_humidity;BME280_pressure;Samples;Min_cycle;Max_cycle;Signal;HPM_P1;HPM_P2
2022/08/27 00:01:42;;;;;;;;;;;14.70;99.90;;;;;;6196331;23;19994;-74
2022/08/27 00:04:08;;;;;;;;;;;14.70;99.90;;;;;;6221558;23;19958;-76
2022/08/27 00:06:34;;;;;;;;;;;14.70;99.90;;;;;;6221127;23;20331;-76
2022/08/27 00:09:00;;;;;;;;;;;14.70;99.90;;;;;;6221582;23;19920;-74
2022/08/27 00:11:26;;;;;;;;;;;14.70;99.90;;;;;;6196392;23;20216;-74
2022/08/27 00:13:52;;;;;;;;;;;14.60;99.90;;;;;;6196826;23;19920;-75
2022/08/27 00:16:19;;;;;;;;;;;14.60;99.90;;;;;;6221873;23;19995;-73
2022/08/27 00:18:46;;;;;;;;;;;14.50;99.90;;;;;;6221804;23;19923;-74
2022/08/27 00:21:12;;;;;;;;;;;14.50;99.90;;;;;;6221412;23;19927;-72
2022/08/27 00:23:38;;;;;;;;;;;14.50;99.90;;;;;;6221173;23;20393;-74
2022/08/27 00:26:04;;;;;;;;;;;14.40;99.90;;;;;;6195552;23;19920;-75
2022/08/27 00:28:31;;;;;;;;;;;14.50;99.90;;;;;;6221467;23;19927;-75
2022/08/27 00:30:56;;;;;;;;;;;14.50;99.90;;;;;;6221234;23;19920;-75
2022/08/27 00:33:22;;;;;;;;;;;14.50;99.90;;;;;;6221248;23;19993;-75
2022/08/27 00:35:48;;;;;;;;;;;14.50;99.90;;;;;;6194722;23;19920;-76
2022/08/27 00:38:14;;;;;;;;;;;14.50;99.90;;;;;;6195124;23;19977;-75
2022/08/27 00:40:40;;;;;;;;;;;14.50;99.90;;;;;;6219532;23;20014;-76
2022/08/27 00:43:06;;;;;;;;;;;14.40;99.90;;;;;;6220531;23;19920;-74
2022/08/27 00:45:36;;;;;;;;;;;14.50;99.90;;;;;;6195065;23;20330;-73
2022/08/27 00:48:01;;;;;;;;;;;14.50;99.90;;;;;;6195738;23;19923;-76
2022/08/27 00:50:30;;;;;;;;;;;14.50;99.90;;;;;;6220908;23;19916;-75
2022/08/27 00:52:57;;;;;;;;;;;14.50;99.90;;;;;;6221308;23;19916;-76
2022/08/27 00:55:26;;;;;;;;;;;14.50;99.90;;;;;;6196041;23;19919;-75
2022/08/27 00:57:55;;;;;;;;;;;14.60;99.90;;;;;;6194790;23;19919;-75
2022/08/27 01:00:20;;;;;;;;;;;14.70;99.90;;;;;;6220565;23;19927;-76
2022/08/27 01:02:47;;;;;;;;;;;14.60;99.90;;;;;;6221356;23;19920;-75
2022/08/27 01:05:19;;;;;;;;;;;14.70;99.90;;;;;;6195977;23;19919;-75
2022/08/27 01:07:47;;;;;;;;;;;14.80;99.90;;;;;;6194939;23;19920;-74
2022/08/27 01:10:15;;;;;;;;;;;14.80;99.90;;;;;;6220368;23;20266;-75
2022/08/27 01:12:41;;;;;;;;;;;14.90;99.90;;;;;;6220558;23;19923;-75
2022/08/27 01:15:08;;;;;;;;;;;14.90;99.90;;;;;;6195598;23;20330;-75
2022/08/27 01:17:36;;;;;;;;;;;14.90;99.90;;;;;;6195492;23;19954;-75
2022/08/27 01:20:03;;;;;;;;;;;14.80;99.90;;;;;;6195466;23;19916;-75
2022/08/27 01:22:43;;;;;;;;;;;14.80;99.90;;;;;;6220514;23;20361;-75
2022/08/27 01:25:10;;;;;;;;;;;14.80;99.90;;;;;;6247771;23;19920;-74
2022/08/27 01:27:36;;;;;;;;;;;14.70;99.90;;;;;;6220663;23;19922;-73
2022/08/27 01:30:03;;;;;;;;;;;14.70;99.90;;;;;;6195607;23;19986;-77
2022/08/27 01:32:31;;;;;;;;;;;14.60;99.90;;;;;;6220518;23;19920;-74
2022/08/27 01:34:56;;;;;;;;;;;14.60;99.90;;;;;;6194712;23;20010;-75
2022/08/27 01:37:22;;;;;;;;;;;14.50;99.90;;;;;;6194691;23;20330;-74
2022/08/27 01:39:48;;;;;;;;;;;14.50;99.90;;;;;;6220770;23;19916;-72
2022/08/27 01:42:16;;;;;;;;;;;14.50;99.90;;;;;;6220272;23;20389;-75
2022/08/27 01:44:52;;;;;;;;;;;14.50;99.90;;;;;;6195935;23;19915;-76
2022/08/27 01:47:19;;;;;;;;;;;14.50;99.90;;;;;;6197785;23;19920;-75
2022/08/27 01:49:45;;;;;;;;;;;14.50;99.90;;;;;;6221224;23;20296;-75
2022/08/27 01:52:12;;;;;;;;;;;14.60;99.90;;;;;;6195432;23;19973;-74
2022/08/27 01:54:37;;;;;;;;;;;14.60;99.90;;;;;;6195621;23;19927;-74
2022/08/27 01:57:03;;;;;;;;;;;14.60;99.90;;;;;;6219467;23;19915;-75
2022/08/27 01:59:29;;;;;;;;;;;14.70;99.90;;;;;;6194092;23;20014;-74
2022/08/27 02:01:54;;;;;;;;;;;14.80;99.90;;;;;;6194241;23;19920;-75
2022/08/27 02:04:20;;;;;;;;;;;14.80;99.90;;;;;;6194360;23;20334;-74
2022/08/27 02:06:46;;;;;;;;;;;14.90;99.90;;;;;;6195014;23;19923;-74
2022/08/27 02:09:12;;;;;;;;;;;14.90;99.90;;;;;;6195218;23;19919;-76
2022/08/27 02:11:37;;;;;;;;;;;15.00;99.90;;;;;;6195323;23;19927;-75
2022/08/27 02:14:06;;;;;;;;;;;15.00;99.90;;;;;;6195434;23;19919;-74
2022/08/27 02:16:32;;;;;;;;;;;15.10;99.90;;;;;;6220083;23;19969;-74
2022/08/27 02:18:58;;;;;;;;;;;15.10;99.90;;;;;;6194735;23;19920;-77
2022/08/27 02:21:24;;;;;;;;;;;15.20;99.90;;;;;;6220024;23;20296;-76
2022/08/27 02:23:50;;;;;;;;;;;15.20;99.90;;;;;;6220704;23;20281;-74
2022/08/27 02:26:15;;;;;;;;;;;15.20;99.90;;;;;;6194819;23;19991;-74
2022/08/27 02:28:41;;;;;;;;;;;15.20;99.90;;;;;;6220060;23;20249;-77
2022/08/27 02:31:07;;;;;;;;;;;15.20;99.90;;;;;;6194700;23;19915;-75
2022/08/27 02:33:32;;;;;;;;;;;15.30;99.90;;;;;;6195262;23;19915;-75
2022/08/27 02:35:58;;;;;;;;;;;15.30;99.90;;;;;;6195023;23;20150;-74
2022/08/27 02:38:24;;;;;;;;;;;15.30;99.90;;;;;;6194902;23;20353;-76
2022/08/27 02:40:49;;;;;;;;;;;15.30;99.90;;;;;;6218393;23;19965;-76
2022/08/27 02:43:15;;;;;;;;;;;15.30;99.90;;;;;;6219697;23;19974;-75
2022/08/27 02:45:41;;;;;;;;;;;15.30;99.90;;;;;;6194919;23;19916;-75
2022/08/27 02:48:07;;;;;;;;;;;15.30;99.90;;;;;;6219905;23;19919;-75
2022/08/27 02:50:32;;;;;;;;;;;15.30;99.90;;;;;;6193883;23;19922;-75
2022/08/27 02:52:59;;;;;;;;;;;15.20;99.90;;;;;;6194783;23;19916;-73
2022/08/27 02:55:24;;;;;;;;;;;15.10;99.90;;;;;;6195026;23;20349;-75
2022/08/27 02:57:50;;;;;;;;;;;15.10;99.90;;;;;;6195134;23;19915;-73
2022/08/27 03:00:17;;;;;;;;;;;15.00;99.90;;;;;;6219997;23;20241;-75
2022/08/27 03:02:43;;;;;;;;;;;15.00;99.90;;;;;;6195033;23;19919;-74
2022/08/27 03:05:10;;;;;;;;;;;14.90;99.90;;;;;;6220351;23;19931;-76
2022/08/27 03:07:36;;;;;;;;;;;14.90;99.90;;;;;;6194451;23;19970;-75
2022/08/27 03:10:02;;;;;;;;;;;14.80;99.90;;;;;;6193860;23;19920;-75
2022/08/27 03:12:28;;;;;;;;;;;14.80;99.90;;;;;;6193106;23;19919;-75
2022/08/27 03:14:54;;;;;;;;;;;14.70;99.90;;;;;;6218167;23;19920;-74
2022/08/27 03:20:05;;;;;;;;;;;14.60;99.90;;;;;;6218234;23;19919;-76
2022/08/27 03:22:31;;;;;;;;;;;14.60;99.90;;;;;;6219779;23;19919;-74
2022/08/27 03:24:56;;;;;;;;;;;14.50;99.90;;;;;;6220254;23;19965;-75
2022/08/27 03:27:22;;;;;;;;;;;14.50;99.90;;;;;;6195129;23;19920;-75
2022/08/27 03:29:48;;;;;;;;;;;14.40;99.90;;;;;;6194331;23;19919;-75
2022/08/27 03:32:13;;;;;;;;;;;14.40;99.90;;;;;;6195007;23;19916;-73
2022/08/27 03:34:39;;;;;;;;;;;14.40;99.90;;;;;;6194440;23;19941;-75
2022/08/27 03:37:04;;;;;;;;;;;14.40;99.90;;;;;;6218871;23;19923;-75
2022/08/27 03:39:30;;;;;;;;;;;14.30;99.90;;;;;;6194286;23;19922;-74
2022/08/27 03:41:56;;;;;;;;;;;14.30;99.90;;;;;;6194174;23;19990;-73
2022/08/27 03:44:22;;;;;;;;;;;14.40;99.90;;;;;;6219686;23;19915;-76
2022/08/27 03:46:49;;;;;;;;;;;14.30;99.90;;;;;;6218950;23;19998;-75
2022/08/27 03:49:15;;;;;;;;;;;14.30;99.90;;;;;;6194109;23;19919;-75
2022/08/27 03:51:41;;;;;;;;;;;14.20;99.90;;;;;;6193915;23;19920;-76
2022/08/27 03:54:07;;;;;;;;;;;14.20;99.90;;;;;;6218897;23;19927;-75
2022/08/27 03:56:38;;;;;;;;;;;14.20;99.90;;;;;;6217561;23;19919;-73
2022/08/27 03:59:04;;;;;;;;;;;14.20;99.90;;;;;;6192805;23;19920;-75
2022/08/27 04:01:30;;;;;;;;;;;14.20;99.90;;;;;;6219849;23;19920;-74
2022/08/27 04:03:56;;;;;;;;;;;14.20;99.90;;;;;;6194819;23;19920;-74
2022/08/27 04:06:21;;;;;;;;;;;14.20;99.90;;;;;;6219220;23;19920;-76
2022/08/27 04:08:47;;;;;;;;;;;14.30;99.90;;;;;;6196449;23;19958;-75
2022/08/27 04:11:13;;;;;;;;;;;14.20;99.90;;;;;;6221137;23;20326;-74
2022/08/27 04:13:39;;;;;;;;;;;14.40;99.90;;;;;;6196187;23;19919;-74
2022/08/27 04:16:05;;;;;;;;;;;14.40;99.90;;;;;;6221056;23;20250;-75
2022/08/27 04:18:31;;;;;;;;;;;14.50;99.90;;;;;;6196296;23;19916;-73
2022/08/27 04:20:57;;;;;;;;;;;14.50;99.90;;;;;;6196087;23;19915;-74
2022/08/27 04:23:22;;;;;;;;;;;14.60;99.90;;;;;;6196253;23;19927;-74
2022/08/27 04:25:48;;;;;;;;;;;14.60;99.90;;;;;;6220838;23;20061;-75
2022/08/27 04:28:15;;;;;;;;;;;14.70;99.90;;;;;;6219462;23;19919;-73
2022/08/27 04:30:41;;;;;;;;;;;14.70;99.90;;;;;;6195702;23;20245;-73
2022/08/27 04:33:07;;;;;;;;;;;14.80;99.90;;;;;;6220527;23;19919;-74
2022/08/27 04:35:35;;;;;;;;;;;14.80;99.90;;;;;;6219479;23;19923;-75
2022/08/27 04:38:00;;;;;;;;;;;14.90;99.90;;;;;;6194155;23;19980;-74
2022/08/27 04:41:18;;;;;;;;;;;15.00;99.90;;;;;;6220673;23;20382;-75
2022/08/27 04:43:13;;;;;;;;;;;15.00;99.90;;;;;;6220671;23;19923;-74
2022/08/27 04:45:45;;;;;;;;;;;15.10;99.90;;;;;;6195847;23;19925;-75
2022/08/27 04:48:12;;;;;;;;;;;15.10;99.90;;;;;;6197652;23;20318;-74
2022/08/27 04:50:39;;;;;;;;;;;15.20;99.90;;;;;;6198680;23;19920;-74
2022/08/27 04:53:04;;;;;;;;;;;15.30;99.90;;;;;;6196118;23;20319;-74
2022/08/27 04:55:30;;;;;;;;;;;15.30;99.90;;;;;;6196187;23;19926;-75
2022/08/27 04:57:55;;;;;;;;;;;15.30;99.90;;;;;;6227119;23;19920;-72
2022/08/27 05:00:21;;;;;;;;;;;15.40;99.90;;;;;;6217167;23;19958;-72
2022/08/27 05:02:47;;;;;;;;;;;15.40;99.90;;;;;;6237596;23;19943;-71
2022/08/27 05:05:12;;;;;;;;;;;15.40;99.90;;;;;;6235584;23;19927;-73
2022/08/27 05:07:38;;;;;;;;;;;15.50;99.90;;;;;;6205629;23;20354;-76
2022/08/27 05:10:06;;;;;;;;;;;15.60;99.90;;;;;;6219950;23;19920;-74
2022/08/27 05:12:32;;;;;;;;;;;15.60;99.90;;;;;;6194767;23;19991;-77
2022/08/27 05:14:58;;;;;;;;;;;15.70;99.90;;;;;;6219936;23;19950;-75
2022/08/27 05:17:23;;;;;;;;;;;15.70;99.90;;;;;;6195496;23;19919;-74
2022/08/27 05:19:49;;;;;;;;;;;15.70;99.90;;;;;;6195427;23;19924;-76
2022/08/27 05:22:14;;;;;;;;;;;15.80;99.90;;;;;;6195888;23;19930;-74
2022/08/27 05:24:40;;;;;;;;;;;15.80;99.90;;;;;;6195833;23;19919;-74
2022/08/27 05:27:05;;;;;;;;;;;15.80;99.90;;;;;;6220581;23;19922;-75
2022/08/27 05:29:31;;;;;;;;;;;15.90;99.90;;;;;;6195386;23;20326;-75
2022/08/27 05:31:57;;;;;;;;;;;15.90;99.90;;;;;;6195429;23;19923;-75
2022/08/27 05:34:22;;;;;;;;;;;15.90;99.90;;;;;;6195646;23;19920;-73
2022/08/27 05:36:48;;;;;;;;;;;15.90;99.90;;;;;;6195530;23;19973;-76
2022/08/27 05:39:14;;;;;;;;;;;15.90;99.90;;;;;;6195574;23;19963;-75
2022/08/27 05:41:40;;;;;;;;;;;16.00;99.90;;;;;;6195277;23;19919;-73
2022/08/27 05:44:08;;;;;;;;;;;16.00;99.90;;;;;;6221097;23;19999;-75
2022/08/27 05:46:35;;;;;;;;;;;16.20;99.90;;;;;;6220837;23;19927;-74
2022/08/27 05:49:00;;;;;;;;;;;16.30;99.90;;;;;;6220033;23;19969;-74
2022/08/27 05:51:31;;;;;;;;;;;16.30;99.90;;;;;;6219658;23;20002;-75
2022/08/27 05:53:58;;;;;;;;;;;16.40;99.90;;;;;;6194780;23;19990;-75
2022/08/27 05:56:58;;;;;;;;;;;16.40;99.90;;;;;;6195262;23;20323;-81
2022/08/27 06:02:38;;;;;;;;;;;16.60;99.90;;;;;;6139265;23;19917;-73
2022/08/27 06:05:03;;;;;;;;;;;16.50;99.90;;;;;;6220250;23;19922;-73
2022/08/27 06:07:30;;;;;;;;;;;16.60;99.90;;;;;;6221170;23;20002;-75
2022/08/27 06:09:57;;;;;;;;;;;16.60;99.90;;;;;;6194583;23;19919;-71
2022/08/27 06:12:24;;;;;;;;;;;16.70;99.90;;;;;;6219790;23;19920;-73
2022/08/27 06:14:49;;;;;;;;;;;16.60;99.90;;;;;;6194941;23;20266;-74
2022/08/27 06:17:15;;;;;;;;;;;16.70;99.90;;;;;;6220320;23;19919;-73
2022/08/27 06:19:41;;;;;;;;;;;16.70;99.90;;;;;;6219994;23;19981;-73
2022/08/27 06:22:07;;;;;;;;;;;16.70;99.90;;;;;;6194070;23;19926;-73
2022/08/27 06:24:33;;;;;;;;;;;16.80;99.90;;;;;;6220141;23;19920;-72
2022/08/27 06:26:58;;;;;;;;;;;16.80;99.90;;;;;;6194652;23;19919;-75
2022/08/27 06:29:24;;;;;;;;;;;16.90;99.90;;;;;;6194111;23;20098;-73
2022/08/27 06:31:51;;;;;;;;;;;16.90;99.90;;;;;;6194302;23;20354;-74
2022/08/27 06:34:17;;;;;;;;;;;17.00;99.90;;;;;;6194490;23;20426;-75
2022/08/27 06:36:43;;;;;;;;;;;17.00;99.90;;;;;;6194054;23;19915;-74
2022/08/27 06:39:12;;;;;;;;;;;17.10;99.90;;;;;;6194230;23;20400;-77
2022/08/27 06:41:42;;;;;;;;;;;17.20;99.90;;;;;;6218986;23;19970;-75
2022/08/27 06:44:16;;;;;;;;;;;17.50;99.90;;;;;;6194099;23;19922;-78
2022/08/27 06:46:42;;;;;;;;;;;17.90;99.90;;;;;;6195228;23;19915;-74
2022/08/27 06:49:07;;;;;;;;;;;18.20;99.90;;;;;;6220179;23;19926;-74
2022/08/27 06:51:34;;;;;;;;;;;18.20;99.90;;;;;;6219767;23;19915;-73
2022/08/27 06:54:01;;;;;;;;;;;18.10;99.90;;;;;;6194802;23;20326;-75
2022/08/27 06:56:35;;;;;;;;;;;18.10;99.90;;;;;;6219664;23;19916;-78
2022/08/27 06:59:02;;;;;;;;;;;18.00;99.90;;;;;;6194485;23;19966;-75
2022/08/27 07:01:30;;;;;;;;;;;18.00;99.90;;;;;;6219685;23;19922;-75
2022/08/27 07:03:57;;;;;;;;;;;17.90;99.90;;;;;;6219593;23;20334;-75
2022/08/27 07:06:23;;;;;;;;;;;17.90;99.90;;;;;;6218719;23;19915;-74
2022/08/27 07:09:10;;;;;;;;;;;17.80;99.90;;;;;;6218115;23;19924;-72
2022/08/27 07:11:53;;;;;;;;;;;17.80;99.90;;;;;;6203569;23;20031;-76
2022/08/27 07:14:57;;;;;;;;;;;;;;;;;;;;;
2022/08/27 07:18:28;;;;;;;;;;;17.80;99.90;;;;;;6214016;23;19915;-77
2022/08/27 07:21:02;;;;;;;;;;;17.80;99.90;;;;;;6126933;23;19975;-77
2022/08/27 07:24:03;;;;;;;;;;;17.70;99.90;;;;;;6138992;23;19916;-77
2022/08/27 07:26:39;;;;;;;;;;;17.80;99.90;;;;;;6162710;23;20019;-75
2022/08/27 07:29:05;;;;;;;;;;;17.80;99.90;;;;;;6164035;23;19931;-78
2022/08/27 07:31:34;;;;;;;;;;;17.90;99.90;;;;;;6164222;23;19938;-75
2022/08/27 07:34:09;;;;;;;;;;;18.20;99.90;;;;;;6164306;23;19916;-75
2022/08/27 07:36:41;;;;;;;;;;;18.50;99.90;;;;;;6165562;23;20320;-77
2022/08/27 07:39:15;;;;;;;;;;;18.90;99.90;;;;;;6165973;23;19923;-76
2022/08/27 07:45:03;;;;;;;;;;;19.50;99.90;;;;;;6189435;23;19991;-75
2022/08/27 07:47:49;;;;;;;;;;;19.70;99.90;;;;;;6218324;23;19927;-77
2022/08/27 07:50:24;;;;;;;;;;;19.70;99.90;;;;;;6191299;23;19965;-74
2022/08/27 07:52:55;;;;;;;;;;;19.80;99.90;;;;;;6167321;23;19951;-75
2022/08/27 07:55:24;;;;;;;;;;;20.00;99.90;;;;;;6164826;23;19916;-75
2022/08/27 07:57:57;;;;;;;;;;;20.20;99.90;;;;;;6130165;23;19971;-74
2022/08/27 08:00:25;;;;;;;;;;;20.30;99.90;;;;;;6155077;23;20291;-75
2022/08/27 08:02:54;;;;;;;;;;;20.50;99.90;;;;;;6106575;23;19916;-77
2022/08/27 08:08:39;;;;;;;;;;;20.70;99.90;;;;;;6103356;23;19952;-76
2022/08/27 08:11:16;;;;;;;;;;;20.90;99.90;;;;;;6105185;23;20079;-75
2022/08/27 08:13:55;;;;;;;;;;;20.70;99.90;;;;;;6107116;23;19916;-74
2022/08/27 08:16:25;;;;;;;;;;;20.40;99.90;;;;;;6106417;23;19971;-76
2022/08/27 08:18:58;;;;;;;;;;;20.00;99.90;;;;;;6154209;23;19924;-74
2022/08/27 08:21:27;;;;;;;;;;;19.80;99.90;;;;;;6154995;23;19923;-74
2022/08/27 08:24:01;;;;;;;;;;;19.70;99.90;;;;;;6082888;23;19928;-76
2022/08/27 08:26:32;;;;;;;;;;;19.70;99.90;;;;;;6076155;23;20331;-74
2022/08/27 08:29:18;;;;;;;;;;;19.60;99.90;;;;;;6176505;23;20338;-76
2022/08/27 08:31:55;;;;;;;;;;;19.60;99.90;;;;;;6167232;23;19923;-75
2022/08/27 08:34:29;;;;;;;;;;;19.90;99.90;;;;;;6143029;23;19915;-75
2022/08/27 08:37:01;;;;;;;;;;;20.00;99.90;;;;;;6142169;23;19915;-75
2022/08/27 08:39:36;;;;;;;;;;;20.00;99.90;;;;;;6142912;23;19974;-76
2022/08/27 08:42:15;;;;;;;;;;;19.80;99.90;;;;;;6190896;23;19916;-74
2022/08/27 08:44:52;;;;;;;;;;;19.70;99.90;;;;;;6166690;23;19962;-75
2022/08/27 08:47:58;;;;;;;;;;;19.70;99.90;;;;;;6168491;23;19931;-75
2022/08/27 08:50:52;;;;;;;;;;;19.90;99.90;;;;;;6182413;23;19916;-75
2022/08/27 08:53:27;;;;;;;;;;;20.30;99.90;;;;;;6160943;23;19923;-74
2022/08/27 08:56:37;;;;;;;;;;;20.40;99.90;;;;;;6194397;23;19961;-74
2022/08/27 08:59:15;;;;;;;;;;;20.10;99.90;;;;;;6144808;23;20015;-74
2022/08/27 09:01:48;;;;;;;;;;;20.00;99.90;;;;;;6190008;23;19916;-74
2022/08/27 09:04:22;;;;;;;;;;;20.20;99.90;;;;;;6165358;23;19916;-75
2022/08/27 09:07:25;;;;;;;;;;;20.40;99.90;;;;;;6194520;23;20323;-75
2022/08/27 09:10:18;;;;;;;;;;;20.80;99.90;;;;;;6166336;23;19965;-77
2022/08/27 09:26:24;;;;;;;;;;;20.90;99.90;;;;;;6037649;23;20349;-74
2022/08/27 09:32:39;;;;;;;;;;;21.20;99.90;;;;;;5896811;24;19961;-74
2022/08/27 09:35:37;;;;;;;;;;;21.20;99.90;;;;;;5817967;24;19951;-76
2022/08/27 09:53:03;;;;;;;;;;;;;;;;;;;;;
2022/08/27 09:56:10;;;;;;;;;;;;;;;;;;;;;
2022/08/27 10:02:55;;;;;;;;;;;;;;;;;;;;;
2022/08/27 10:10:32;;;;;;;;;;;21.00;99.90;;;;;;6092864;23;19992;-76
2022/08/27 10:13:18;;;;;;;;;;;;;;;;;;;;;
2022/08/27 10:16:23;;;;;;;;;;;20.90;99.90;;;;;;6095653;23;19917;-75
2022/08/27 10:19:31;;;;;;;;;;;;;;;;;;;;;
2022/08/27 10:22:56;;;;;;;;;;;;;;;;;;;;;
2022/08/27 10:26:48;;;;;;;;;;;;;;;;;;;;;
2022/08/27 10:30:14;;;;;;;;;;;;;;;;;;;;;
2022/08/27 10:33:20;;;;;;;;;;;20.80;99.90;;;;;;6008961;23;20005;-75
2022/08/27 10:36:02;;;;;;;;;;;20.90;99.90;;;;;;6003128;23;19929;-76
2022/08/27 10:38:52;;;;;;;;;;;20.80;99.90;;;;;;5987906;23;19922;-77
2022/08/27 10:41:40;;;;;;;;;;;20.70;99.90;;;;;;5985751;23;19923;-74
2022/08/27 10:44:33;;;;;;;;;;;20.70;99.90;;;;;;6048141;23;19917;-76
2022/08/27 10:47:34;;;;;;;;;;;20.80;99.90;;;;;;6071514;23;19924;-76
2022/08/27 10:50:05;;;;;;;;;;;20.90;99.90;;;;;;6085390;23;19924;-81
2022/08/27 10:52:43;;;;;;;;;;;21.20;99.90;;;;;;6103064;23;19917;-76
2022/08/27 10:55:17;;;;;;;;;;;21.20;99.90;;;;;;6105423;23;19980;-77
2022/08/27 10:57:51;;;;;;;;;;;21.10;99.90;;;;;;6108126;23;19948;-74
2022/08/27 11:00:18;;;;;;;;;;;21.10;99.90;;;;;;6109415;23;19924;-75
2022/08/27 11:05:45;;;;;;;;;;;21.00;99.90;;;;;;6089701;23;20300;-75
2022/08/27 11:08:11;;;;;;;;;;;20.80;99.90;;;;;;6189328;23;19963;-77
2022/08/27 11:10:58;;;;;;;;;;;21.10;99.90;;;;;;6189972;23;20327;-76
2022/08/27 11:13:41;;;;;;;;;;;21.40;99.90;;;;;;6166052;23;19994;-76
2022/08/27 11:16:34;;;;;;;;;;;21.40;99.90;;;;;;6166646;23;19959;-76
2022/08/27 11:19:10;;;;;;;;;;;21.50;99.90;;;;;;6164435;23;19923;-76
2022/08/27 11:21:44;;;;;;;;;;;21.60;99.90;;;;;;6167575;23;19990;-77
2022/08/27 11:24:22;;;;;;;;;;;21.30;99.90;;;;;;6166869;23;20330;-76
2022/08/27 11:27:14;;;;;;;;;;;21.20;99.90;;;;;;6167774;23;19920;-75
2022/08/27 11:29:59;;;;;;;;;;;21.20;99.90;;;;;;6174624;23;19920;-76
2022/08/27 11:39:46;;;;;;;;;;;20.80;99.90;;;;;;5945895;23;20124;-78
2022/08/27 11:49:32;;;;;;;;;;;21.00;99.90;;;;;;5927161;24;19931;-79
2022/08/27 12:16:24;;;;;;;;;;;21.80;99.90;;;;;;6251845;22;19926;-81
2022/08/27 12:19:12;;;;;;;;;;;21.60;99.90;;;;;;6225753;22;19915;-79
2022/08/27 12:21:43;;;;;;;;;;;21.50;99.90;;;;;;6225210;22;19915;-77
2022/08/27 12:24:32;;;;;;;;;;;21.40;99.90;;;;;;6250943;22;19919;-78
2022/08/27 12:30:21;;;;;;;;;;;21.80;99.90;;;;;;6278583;22;20245;-77
2022/08/27 12:32:50;;;;;;;;;;;21.80;99.90;;;;;;6250529;22;19915;-78
2022/08/27 12:38:48;;;;;;;;;;;21.60;99.90;;;;;;6278462;22;19918;-78
2022/08/27 12:41:37;;;;;;;;;;;21.50;99.90;;;;;;6225817;22;19920;-77
2022/08/27 12:44:11;;;;;;;;;;;21.50;99.90;;;;;;6202247;22;19915;-78
2022/08/27 13:45:18;;;;;;;;;;;21.40;99.90;;;;;;6277160;22;19918;-82
2022/08/27 13:48:00;;;;;;;;;;;21.30;99.90;;;;;;6200878;22;19916;-83
2022/08/27 13:50:57;;;;;;;;;;;21.40;99.90;;;;;;6226343;22;19922;-78
2022/08/27 14:33:55;;;;;;;;;;;;;;;;;;;;;
2022/08/27 15:02:19;;;;;;;;;;;;;;;;;;;;;
2022/08/27 15:05:37;;;;;;;;;;;20.50;99.90;;;;;;6183221;23;20267;-82
2022/08/27 15:14:51;;;;;;;;;;;20.10;99.90;;;;;;6137420;23;19916;-77
2022/08/27 15:17:30;;;;;;;;;;;20.20;99.90;;;;;;6133731;23;19922;-82
2022/08/27 15:20:07;;;;;;;;;;;20.00;99.90;;;;;;6176802;22;19915;-81
2022/08/27 15:22:39;;;;;;;;;;;19.90;99.90;;;;;;6168884;23;22043;-77
2022/08/27 15:25:08;;;;;;;;;;;20.10;99.90;;;;;;6194118;23;20238;-78
2022/08/27 15:27:34;;;;;;;;;;;20.30;99.90;;;;;;6170263;23;19990;-79
2022/08/27 15:30:00;;;;;;;;;;;20.40;99.90;;;;;;6219992;23;19959;-79
2022/08/27 15:32:39;;;;;;;;;;;20.30;99.90;;;;;;6194807;23;19923;-79
2022/08/27 15:35:13;;;;;;;;;;;20.40;99.90;;;;;;6194844;23;20040;-80
2022/08/27 15:37:41;;;;;;;;;;;20.40;99.90;;;;;;6218546;23;19922;-79
2022/08/27 15:40:06;;;;;;;;;;;20.40;99.90;;;;;;6219861;23;20281;-82
2022/08/27 15:42:32;;;;;;;;;;;20.30;99.90;;;;;;6195096;23;19920;-78
2022/08/27 15:45:01;;;;;;;;;;;20.30;99.90;;;;;;6194525;23;20281;-78
2022/08/27 15:47:26;;;;;;;;;;;20.20;99.90;;;;;;6194791;23;19915;-81
2022/08/27 15:50:16;;;;;;;;;;;20.30;99.90;;;;;;6194671;23;20223;-80
2022/08/27 15:55:51;;;;;;;;;;;20.40;99.90;;;;;;6219785;23;20260;-79
2022/08/27 15:58:25;;;;;;;;;;;20.20;99.90;;;;;;6194019;23;19974;-79
2022/08/27 16:01:21;;;;;;;;;;;20.10;99.90;;;;;;6194499;23;19919;-78
2022/08/27 16:03:48;;;;;;;;;;;20.00;99.90;;;;;;6191964;23;20009;-78
2022/08/27 16:06:20;;;;;;;;;;;20.00;99.90;;;;;;6195709;23;20289;-78
2022/08/27 16:09:12;;;;;;;;;;;20.00;99.90;;;;;;6196719;23;19916;-78
2022/08/27 16:11:50;;;;;;;;;;;19.90;99.90;;;;;;6196225;23;19922;-78
2022/08/27 16:14:53;;;;;;;;;;;;;;;;;;;;;
2022/08/27 16:18:27;;;;;;;;;;;19.70;99.90;;;;;;6220212;23;19919;-79
2022/08/27 16:21:26;;;;;;;;;;;19.50;99.90;;;;;;6216783;23;19920;-77
2022/08/27 16:24:20;;;;;;;;;;;19.20;99.90;;;;;;6247681;23;19962;-78
2022/08/27 16:26:55;;;;;;;;;;;19.30;99.90;;;;;;6196359;23;19919;-79
2022/08/27 16:29:50;;;;;;;;;;;19.30;99.90;;;;;;6196769;23;19965;-79
2022/08/27 16:33:00;;;;;;;;;;;19.30;99.90;;;;;;6048678;23;19933;-79
2022/08/27 16:39:31;;;;;;;;;;;19.20;99.90;;;;;;6151600;23;19967;-79
2022/08/27 16:45:31;;;;;;;;;;;18.90;99.90;;;;;;6130317;23;19923;-79
2022/08/27 16:51:28;;;;;;;;;;;18.80;99.90;;;;;;6247866;23;19914;-79
2022/08/27 16:54:00;;;;;;;;;;;18.80;99.90;;;;;;6195720;23;19965;-78
2022/08/27 16:56:50;;;;;;;;;;;18.90;99.90;;;;;;6196110;23;19916;-78
2022/08/27 17:00:03;;;;;;;;;;;;;;;;;;;;;
2022/08/27 17:02:47;;;;;;;;;;;18.80;99.90;;;;;;6162673;23;19947;-78
2022/08/27 17:05:16;;;;;;;;;;;18.90;99.90;;;;;;6190698;23;19963;-76
2022/08/27 17:07:41;;;;;;;;;;;18.80;99.90;;;;;;6165159;23;19920;-74
2022/08/27 17:10:08;;;;;;;;;;;18.80;99.90;;;;;;6213364;23;19990;-75
2022/08/27 17:12:34;;;;;;;;;;;18.80;99.90;;;;;;6213521;23;19954;-75
2022/08/27 17:15:00;;;;;;;;;;;18.70;99.90;;;;;;6189280;23;20242;-75
2022/08/27 17:17:27;;;;;;;;;;;18.60;99.90;;;;;;6189216;23;19973;-75
2022/08/27 17:19:52;;;;;;;;;;;18.60;99.90;;;;;;6189279;23;19931;-75
2022/08/27 17:22:18;;;;;;;;;;;18.40;99.90;;;;;;6189429;23;19920;-75
2022/08/27 17:24:44;;;;;;;;;;;18.40;99.90;;;;;;6190135;23;19943;-75
2022/08/27 17:27:09;;;;;;;;;;;18.40;99.90;;;;;;6214675;23;19967;-74
2022/08/27 17:29:35;;;;;;;;;;;18.30;99.90;;;;;;6189962;23;19995;-76
2022/08/27 17:32:02;;;;;;;;;;;18.20;99.90;;;;;;6189882;23;20102;-75
2022/08/27 17:34:29;;;;;;;;;;;18.10;99.90;;;;;;6188753;23;19916;-75
2022/08/27 17:37:03;;;;;;;;;;;18.00;99.90;;;;;;6189672;23;19923;-81
2022/08/27 17:39:29;;;;;;;;;;;18.00;99.90;;;;;;6191178;23;20274;-79
2022/08/27 17:59:25;;;;;;;;;;;17.70;99.90;;;;;;6122971;23;19917;-75
2022/08/27 18:02:21;;;;;;;;;;;17.70;99.90;;;;;;6122718;23;19928;-85
2022/08/27 18:04:47;;;;;;;;;;;17.70;99.90;;;;;;6146325;23;20278;-77
2022/08/27 18:07:24;;;;;;;;;;;;;;;;;;;;;
2022/08/27 18:10:27;;;;;;;;;;;;;;;;;;;;;
2022/08/27 18:17:04;;;;;;;;;;;17.60;99.90;;;;;;6092081;23;20341;-79
2022/08/27 18:19:36;;;;;;;;;;;17.50;99.90;;;;;;6103827;23;20338;-79
2022/08/27 18:31:26;;;;;;;;;;;17.30;99.90;;;;;;6181487;23;19914;-81
2022/08/27 18:33:58;;;;;;;;;;;17.20;99.90;;;;;;6157099;23;19999;-81
2022/08/27 18:36:27;;;;;;;;;;;17.10;99.90;;;;;;6156790;23;20339;-81
2022/08/27 18:39:03;;;;;;;;;;;17.00;99.90;;;;;;6157307;23;19916;-79
2022/08/27 18:41:47;;;;;;;;;;;17.10;99.90;;;;;;6109259;23;19920;-82
2022/08/27 18:44:14;;;;;;;;;;;16.90;99.90;;;;;;6156471;23;20319;-75
2022/08/27 18:46:53;;;;;;;;;;;16.90;99.90;;;;;;6157438;23;19916;-78
2022/08/27 18:53:09;;;;;;;;;;;16.80;99.90;;;;;;6181610;23;19972;-80
2022/08/27 18:58:57;;;;;;;;;;;16.60;99.90;;;;;;6182211;23;19923;-74
2022/08/27 19:01:31;;;;;;;;;;;16.60;99.90;;;;;;6157216;23;19920;-79
2022/08/27 19:07:41;;;;;;;;;;;16.50;99.90;;;;;;6183197;23;19931;-79
2022/08/27 20:02:33;;;;;;;;;;;16.00;99.90;;;;;;6211649;22;21091;-75
2022/08/27 20:05:06;;;;;;;;;;;15.90;99.90;;;;;;6220670;23;19916;-76
2022/08/27 20:07:44;;;;;;;;;;;15.90;99.90;;;;;;6196110;23;19923;-77
2022/08/27 20:26:34;;;;;;;;;;;15.50;99.90;;;;;;6038283;23;19921;-75
2022/08/27 20:53:20;;;;;;;;;;;15.10;99.90;;;;;;5985566;23;19918;-81
2022/08/27 20:55:55;;;;;;;;;;;15.10;99.90;;;;;;5990539;23;20427;-81
2022/08/27 21:01:20;;;;;;;;;;;15.00;99.90;;;;;;6169168;23;19955;-80
2022/08/27 21:03:46;;;;;;;;;;;15.20;99.90;;;;;;6164059;23;19923;-79
2022/08/27 21:06:21;;;;;;;;;;;15.10;99.90;;;;;;6165613;23;19923;-80
2022/08/27 21:08:53;;;;;;;;;;;15.20;99.90;;;;;;6164782;23;19916;-79
2022/08/27 21:11:27;;;;;;;;;;;15.30;99.90;;;;;;6163997;23;19916;-79
2022/08/27 21:14:00;;;;;;;;;;;15.30;99.90;;;;;;6165027;23;19990;-79
2022/08/27 21:16:40;;;;;;;;;;;15.40;99.90;;;;;;6167391;23;20229;-79
2022/08/27 21:19:17;;;;;;;;;;;15.40;99.90;;;;;;6165147;23;19923;-80
2022/08/27 21:21:50;;;;;;;;;;;15.30;99.90;;;;;;6189395;23;20255;-81
2022/08/27 21:24:29;;;;;;;;;;;15.40;99.90;;;;;;6165614;23;19922;-78
2022/08/27 21:29:59;;;;;;;;;;;15.40;99.90;;;;;;6171862;23;19915;-79
2022/08/27 21:32:30;;;;;;;;;;;15.30;99.90;;;;;;6136103;23;19923;-78
2022/08/27 21:35:12;;;;;;;;;;;15.40;99.90;;;;;;6165426;23;19922;-79